createdAt,value
2023-02-02T00:00:58.174Z,96895.84
2023-02-02T00:03:24.514Z,96908.56
2023-02-02T00:05:52.019Z,96913.28
2023-02-02T00:08:18.968Z,96907.16
2023-02-02T00:10:45.711Z,96906.94
2023-02-02T00:13:12.389Z,96905.16
2023-02-02T00:15:38.874Z,96916.09
2023-02-02T00:18:12.414Z,96928.50
2023-02-02T00:20:38.889Z,96926.69
2023-02-02T00:23:05.664Z,96923.91
2023-02-02T00:25:32.442Z,96937.06
2023-02-02T00:27:58.821Z,96943.19
2023-02-02T00:30:25.279Z,96949.06
2023-02-02T00:32:53.119Z,96930.22
2023-02-02T00:35:23.793Z,96939.16
2023-02-02T00:37:50.267Z,96934.78
2023-02-02T00:40:16.727Z,96927.78
2023-02-02T00:42:43.490Z,96935.72
2023-02-02T00:45:16.367Z,96934.78
2023-02-02T00:47:43.810Z,96931.16
2023-02-02T00:50:11.641Z,96904.97
2023-02-02T00:52:38.267Z,96912.53
2023-02-02T00:55:04.915Z,96921.97
2023-02-02T00:57:31.214Z,96919.97
2023-02-02T00:59:57.547Z,96927.75
2023-02-02T01:02:23.974Z,96931.59
2023-02-02T01:04:56.198Z,96904.56
2023-02-02T01:07:22.578Z,96918.22
2023-02-02T01:09:48.921Z,96920.19
2023-02-02T01:12:15.245Z,96921.72
2023-02-02T01:14:43.624Z,96920.09
2023-02-02T01:17:10.034Z,96917.13
2023-02-02T01:19:37.413Z,96924.78
2023-02-02T01:22:03.783Z,96916.53
2023-02-02T01:24:37.201Z,96919.22
2023-02-02T01:27:03.660Z,96921.72
2023-02-02T01:29:30.059Z,96914.88
2023-02-02T01:32:04.421Z,96921.81
2023-02-02T01:34:30.764Z,96925.03
2023-02-02T01:36:57.108Z,96930.97
2023-02-02T01:39:23.438Z,96926.66
2023-02-02T01:41:49.900Z,96920.66
2023-02-02T01:44:40.094Z,96928.31
2023-02-02T01:47:06.524Z,96932.81
2023-02-02T01:49:33.086Z,96946.53
2023-02-02T01:52:00.982Z,96948.44
2023-02-02T01:54:27.270Z,96949.28
2023-02-02T01:57:05.244Z,96949.72
2023-02-02T01:59:32.283Z,96944.53
2023-02-02T02:01:58.863Z,96954.69
2023-02-02T02:04:26.835Z,96958.91
2023-02-02T02:06:53.705Z,96957.88
2023-02-02T02:09:20.111Z,96960.56
2023-02-02T02:11:46.445Z,96975.72
2023-02-02T02:14:32.459Z,96960.66
2023-02-02T02:17:10.987Z,96960.19
2023-02-02T02:20:15.017Z,96962.78
2023-02-02T02:23:17.882Z,96952.31
2023-02-02T02:26:15.075Z,96951.84
2023-02-02T02:29:04.469Z,96950.44
2023-02-02T02:31:46.354Z,96937.97
2023-02-02T02:34:12.677Z,96940.78
2023-02-02T02:36:38.969Z,96924.28
2023-02-02T02:39:10.447Z,96932.53
2023-02-02T02:41:39.268Z,96924.09
2023-02-02T02:44:11.239Z,96913.56
2023-02-02T02:46:38.205Z,96918.56
2023-02-02T02:49:08.477Z,96938.31
2023-02-02T02:51:34.776Z,96946.75
2023-02-02T02:54:01.703Z,96953.97
2023-02-02T02:56:41.770Z,96953.94
2023-02-02T02:59:17.270Z,96941.97
2023-02-02T03:01:51.697Z,96949.03
2023-02-02T03:04:33.633Z,96956.00
2023-02-02T03:07:05.285Z,96960.81
2023-02-02T03:09:35.057Z,96967.44
2023-02-02T03:12:01.722Z,96964.25
2023-02-02T03:14:28.100Z,96969.06
2023-02-02T03:16:54.539Z,96962.00
2023-02-02T03:19:21.138Z,96958.09
2023-02-02T03:21:47.461Z,96953.75
2023-02-02T03:24:13.760Z,96948.94
2023-02-02T03:26:40.198Z,96958.00
2023-02-02T03:29:06.606Z,96968.59
2023-02-02T03:31:32.923Z,96969.28
2023-02-02T03:33:59.424Z,96967.75
2023-02-02T03:36:26.315Z,96967.47
2023-02-02T03:38:52.652Z,96963.63
2023-02-02T03:41:18.986Z,96968.22
2023-02-02T03:43:45.851Z,96968.69
2023-02-02T03:46:12.198Z,96973.50
2023-02-02T03:48:39.063Z,96983.19
2023-02-02T03:51:09.382Z,96994.66
2023-02-02T03:53:35.954Z,96983.66
2023-02-02T03:56:02.474Z,96979.47
2023-02-02T03:58:35.956Z,96988.09
2023-02-02T04:01:03.313Z,96993.31
2023-02-02T04:03:30.749Z,96989.97
2023-02-02T04:05:57.229Z,96993.75
2023-02-02T04:08:23.639Z,96995.97
2023-02-02T04:10:49.990Z,96993.53
2023-02-02T04:13:16.339Z,96996.13
2023-02-02T04:15:42.697Z,96988.53
2023-02-02T04:18:09.025Z,96995.63
2023-02-02T04:20:35.318Z,96990.47
2023-02-02T04:23:01.727Z,97001.78
2023-02-02T04:25:28.321Z,97005.66
2023-02-02T04:27:55.733Z,97012.31
2023-02-02T04:30:22.051Z,97012.38
2023-02-02T04:32:52.561Z,97019.22
2023-02-02T04:35:18.893Z,97020.88
2023-02-02T04:37:45.264Z,97022.78
2023-02-02T04:40:11.970Z,97013.78
2023-02-02T04:42:45.432Z,97021.56
2023-02-02T04:45:11.847Z,97017.34
2023-02-02T04:47:38.181Z,97018.97
2023-02-02T04:50:04.740Z,97022.50
2023-02-02T04:52:31.083Z,97028.91
2023-02-02T04:54:57.424Z,97021.09
2023-02-02T04:57:23.731Z,97017.34
2023-02-02T04:59:50.081Z,97019.72
2023-02-02T05:02:16.457Z,97022.16
2023-02-02T05:04:42.813Z,97025.59
2023-02-02T05:07:10.232Z,97028.38
2023-02-02T05:09:36.557Z,97030.97
2023-02-02T05:12:02.962Z,97033.88
2023-02-02T05:14:29.366Z,97041.28
2023-02-02T05:16:55.702Z,97037.03
2023-02-02T05:19:22.036Z,97041.84
2023-02-02T05:21:51.310Z,97039.28
2023-02-02T05:24:17.932Z,97036.22
2023-02-02T05:26:44.358Z,97036.81
2023-02-02T05:29:18.497Z,97043.59
2023-02-02T05:31:44.840Z,97045.03
2023-02-02T05:34:13.456Z,97044.38
2023-02-02T05:36:39.947Z,97046.47
2023-02-02T05:39:06.269Z,97045.63
2023-02-02T05:41:33.668Z,97054.47
2023-02-02T05:44:00.087Z,97051.19
2023-02-02T05:46:26.424Z,97047.66
2023-02-02T05:48:52.782Z,97049.75
2023-02-02T05:51:21.733Z,97056.06
2023-02-02T05:53:48.123Z,97057.13
2023-02-02T05:56:16.062Z,97071.31
2023-02-02T05:58:43.030Z,97072.81
2023-02-02T06:01:10.016Z,97078.75
2023-02-02T06:03:36.381Z,97082.38
2023-02-02T06:06:04.852Z,97080.09
2023-02-02T06:08:32.340Z,97083.59
2023-02-02T06:10:58.673Z,97079.38
2023-02-02T06:13:25.148Z,97088.31
2023-02-02T06:15:51.605Z,97082.66
2023-02-02T06:18:18.110Z,97082.38
2023-02-02T06:20:47.671Z,97084.19
2023-02-02T06:23:14.049Z,97082.63
2023-02-02T06:25:40.390Z,97095.25
2023-02-02T06:28:07.740Z,97091.59
2023-02-02T06:30:34.247Z,97092.56
2023-02-02T06:33:00.879Z,97093.19
2023-02-02T06:35:27.607Z,97094.19
2023-02-02T06:37:54.029Z,97103.59
2023-02-02T06:40:20.356Z,97097.63
2023-02-02T06:42:46.673Z,97092.91
2023-02-02T06:45:13.096Z,97090.75
2023-02-02T06:47:39.423Z,97096.31
2023-02-02T06:50:05.980Z,97089.50
2023-02-02T06:52:32.377Z,97103.59
2023-02-02T06:54:58.774Z,97095.63
2023-02-02T06:57:25.242Z,97104.34
2023-02-02T06:59:52.303Z,97097.13
2023-02-02T07:02:18.806Z,97100.81
2023-02-02T07:04:45.173Z,97104.34
2023-02-02T07:07:13.551Z,97100.22
2023-02-02T07:09:40.030Z,97095.25
2023-02-02T07:12:07.516Z,97105.97
2023-02-02T07:14:33.918Z,97110.47
2023-02-02T07:17:00.245Z,97108.84
2023-02-02T07:19:26.600Z,97113.41
2023-02-02T07:21:52.925Z,97107.69
2023-02-02T07:24:19.272Z,97111.81
2023-02-02T07:26:45.663Z,97122.56
2023-02-02T07:29:13.220Z,97111.66
2023-02-02T07:31:39.799Z,97117.13
2023-02-02T07:34:07.289Z,97124.97
2023-02-02T07:36:33.841Z,97126.50
2023-02-02T07:39:03.874Z,97127.66
2023-02-02T07:41:33.466Z,97137.84
2023-02-02T07:43:59.790Z,97127.88
2023-02-02T07:46:26.204Z,97136.97
2023-02-02T07:48:56.386Z,97132.66
2023-02-02T07:51:23.465Z,97131.50
2023-02-02T07:53:50.951Z,97133.97
2023-02-02T07:56:18.945Z,97136.00
2023-02-02T07:58:45.830Z,97142.34
2023-02-02T08:01:13.150Z,97141.88
2023-02-02T08:03:39.783Z,97147.25
2023-02-02T08:06:17.813Z,97150.72
2023-02-02T08:08:44.210Z,97149.84
2023-02-02T08:11:12.070Z,97144.94
2023-02-02T08:13:38.916Z,97145.13
2023-02-02T08:16:05.765Z,97146.00
2023-02-02T08:18:32.683Z,97141.63
2023-02-02T08:20:59.876Z,97140.31
2023-02-02T08:23:26.655Z,97137.06
2023-02-02T08:25:53.512Z,97146.94
2023-02-02T08:28:20.131Z,97148.69
2023-02-02T08:30:46.594Z,97146.81
2023-02-02T08:33:13.572Z,97152.94
2023-02-02T08:35:40.726Z,97145.88
2023-02-02T08:38:07.965Z,97147.66
2023-02-02T08:40:34.296Z,97153.69
2023-02-02T08:43:00.919Z,97153.47
2023-02-02T08:46:01.422Z,97153.81
2023-02-02T08:48:14.431Z,97164.53
2023-02-02T08:50:40.925Z,97159.81
2023-02-02T08:53:07.250Z,97158.66
2023-02-02T08:55:33.709Z,97156.28
2023-02-02T08:58:01.890Z,97158.00
2023-02-02T09:00:28.202Z,97158.75
2023-02-02T09:02:54.533Z,97162.44
2023-02-02T09:05:20.861Z,97167.19
2023-02-02T09:07:49.166Z,97164.47
2023-02-02T09:10:15.685Z,97166.25
2023-02-02T09:12:42.029Z,97162.75
2023-02-02T09:15:08.624Z,97165.19
2023-02-02T09:17:35.299Z,97177.63
2023-02-02T09:20:01.639Z,97183.41
2023-02-02T09:22:28.886Z,97174.66
2023-02-02T09:24:55.395Z,97173.97
2023-02-02T09:27:21.731Z,97188.69
2023-02-02T09:29:54.287Z,97188.38
2023-02-02T09:32:20.650Z,97193.78
2023-02-02T09:34:47.427Z,97188.22
2023-02-02T09:37:15.762Z,97190.22
2023-02-02T09:39:42.094Z,97193.41
2023-02-02T09:42:17.445Z,97194.72
2023-02-02T09:44:58.186Z,97197.31
2023-02-02T09:47:33.722Z,97199.34
2023-02-02T09:50:00.143Z,97197.44
2023-02-02T09:52:29.976Z,97193.72
2023-02-02T09:54:59.723Z,97203.78
2023-02-02T09:57:36.926Z,97204.97
2023-02-02T10:00:05.726Z,97201.81
2023-02-02T10:02:38.756Z,97206.31
2023-02-02T10:05:12.431Z,97206.31
2023-02-02T10:07:45.950Z,97208.72
2023-02-02T10:10:21.752Z,97214.03
2023-02-02T10:12:57.663Z,97211.31
2023-02-02T10:15:36.684Z,97208.00
2023-02-02T10:18:12.340Z,97213.41
2023-02-02T10:20:44.511Z,97211.47
2023-02-02T10:23:13.660Z,97216.22
2023-02-02T10:25:46.665Z,97215.97
2023-02-02T10:28:20.480Z,97211.03
2023-02-02T10:30:50.496Z,97212.44
2023-02-02T10:33:27.696Z,97217.13
2023-02-02T10:36:00.930Z,97207.28
2023-02-02T10:38:27.248Z,97204.34
2023-02-02T10:41:02.503Z,97210.03
2023-02-02T10:43:47.593Z,97207.84
2023-02-02T10:46:24.263Z,97210.13
2023-02-02T10:48:52.711Z,97200.56
2023-02-02T10:51:30.437Z,97198.75
2023-02-02T10:53:58.817Z,97201.59
2023-02-02T10:56:35.734Z,97199.88
2023-02-02T10:59:05.966Z,97196.47
2023-02-02T11:01:32.483Z,97193.19
2023-02-02T11:04:17.405Z,97196.47
2023-02-02T11:06:49.779Z,97188.22
2023-02-02T11:09:28.644Z,97195.94
2023-02-02T11:11:58.233Z,97184.72
2023-02-02T11:14:45.052Z,97190.63
2023-02-02T11:17:20.015Z,97193.47
2023-02-02T11:19:46.466Z,97187.09
2023-02-02T11:22:33.927Z,97190.16
2023-02-02T11:25:02.103Z,97188.28
2023-02-02T11:27:32.243Z,97191.81
2023-02-02T11:30:00.992Z,97194.06
2023-02-02T11:32:36.303Z,97202.19
2023-02-02T11:35:03.022Z,97197.59
2023-02-02T11:37:29.796Z,97204.97
2023-02-02T11:40:16.106Z,97204.09
2023-02-02T11:42:45.830Z,97200.66
2023-02-02T11:45:16.325Z,97197.09
2023-02-02T11:47:44.013Z,97185.91
2023-02-02T11:50:17.579Z,97202.88
2023-02-02T11:52:45.919Z,97196.66
2023-02-02T11:55:17.215Z,97196.28
2023-02-02T11:58:03.915Z,97193.69
2023-02-02T12:00:30.511Z,97198.97
2023-02-02T12:02:58.287Z,97203.34
2023-02-02T12:05:35.404Z,97201.22
2023-02-02T12:08:01.735Z,97196.78
2023-02-02T12:10:35.035Z,97198.19
2023-02-02T12:13:05.668Z,97205.72
2023-02-02T12:15:41.389Z,97203.38
2023-02-02T12:18:25.754Z,97194.91
2023-02-02T12:20:58.872Z,97199.38
2023-02-02T12:23:44.411Z,97193.63
2023-02-02T12:26:10.808Z,97205.81
2023-02-02T12:28:37.159Z,97198.38
2023-02-02T12:31:09.417Z,97199.44
2023-02-02T12:33:44.653Z,97200.66
2023-02-02T12:36:20.044Z,97205.72
2023-02-02T12:39:04.422Z,97205.72
2023-02-02T12:41:47.282Z,97209.03
2023-02-02T12:44:27.472Z,97213.53
2023-02-02T12:47:06.589Z,97217.53
2023-02-02T12:49:43.043Z,97220.13
2023-02-02T12:52:16.636Z,97217.16
2023-02-02T12:54:54.208Z,97218.03
2023-02-02T12:57:21.670Z,97216.34
2023-02-02T12:59:54.040Z,97222.03
2023-02-02T13:02:49.803Z,97223.94
2023-02-02T13:05:27.950Z,97227.09
2023-02-02T13:08:17.641Z,97226.19
2023-02-02T13:10:47.396Z,97232.44
2023-02-02T13:13:16.810Z,97228.19
2023-02-02T13:15:46.298Z,97234.06
2023-02-02T13:18:26.316Z,97224.75
2023-02-02T13:20:55.438Z,97231.47
2023-02-02T13:23:27.827Z,97243.28
2023-02-02T13:26:01.177Z,97239.72
2023-02-02T13:28:35.603Z,97250.50
2023-02-02T13:31:06.467Z,97247.41
2023-02-02T13:33:35.597Z,97249.91
2023-02-02T13:36:25.809Z,97253.56
2023-02-02T13:38:57.475Z,97259.91
2023-02-02T13:41:24.320Z,97257.56
2023-02-02T13:43:53.781Z,97264.75
2023-02-02T13:46:33.421Z,97264.28
2023-02-02T13:49:10.787Z,97269.22
2023-02-02T13:51:43.533Z,97279.09
2023-02-02T13:54:12.924Z,97273.00
2023-02-02T13:56:40.998Z,97273.59
2023-02-02T13:59:14.313Z,97286.59
2023-02-02T14:01:42.398Z,97290.59
2023-02-02T14:04:19.823Z,97293.19
2023-02-02T14:06:57.305Z,97288.38
2023-02-02T14:09:27.359Z,97297.31
2023-02-02T14:12:02.158Z,97300.41
2023-02-02T14:14:32.186Z,97303.69
2023-02-02T14:16:59.605Z,97307.13
2023-02-02T14:19:28.995Z,97314.00
2023-02-02T14:22:04.659Z,97322.34
2023-02-02T14:24:34.533Z,97323.53
2023-02-02T14:27:02.142Z,97326.00
2023-02-02T14:29:31.757Z,97336.84
2023-02-02T14:31:59.456Z,97332.03
2023-02-02T14:34:42.133Z,97336.09
2023-02-02T14:37:09.181Z,97342.09
2023-02-02T14:39:41.031Z,97344.06
2023-02-02T14:42:42.148Z,97347.63
2023-02-02T14:45:08.569Z,97353.41
2023-02-02T14:47:52.445Z,97350.16
2023-02-02T14:50:24.656Z,97358.88
2023-02-02T14:52:59.941Z,97359.16
2023-02-02T14:55:27.822Z,97365.31
2023-02-02T14:57:57.978Z,97372.34
2023-02-02T15:00:26.413Z,97358.16
2023-02-02T15:02:55.735Z,97369.00
2023-02-02T15:05:28.179Z,97372.91
2023-02-02T15:08:05.596Z,97379.53
2023-02-02T15:10:51.941Z,97379.03
2023-02-02T15:13:19.518Z,97392.13
2023-02-02T15:15:48.199Z,97387.38
2023-02-02T15:18:37.798Z,97396.66
2023-02-02T15:21:06.580Z,97407.25
2023-02-02T15:23:34.552Z,97407.59
2023-02-02T15:26:03.805Z,97407.59
2023-02-02T15:28:38.459Z,97411.34
2023-02-02T15:31:04.887Z,97415.13
2023-02-02T15:33:39.671Z,97411.25
2023-02-02T15:36:11.207Z,97421.09
2023-02-02T15:38:39.677Z,97424.41
2023-02-02T15:41:26.467Z,97422.88
2023-02-02T15:43:54.084Z,97433.00
2023-02-02T15:46:32.646Z,97446.66
2023-02-02T15:49:32.893Z,97438.88
2023-02-02T15:52:01.374Z,97447.31
2023-02-02T15:54:29.497Z,97449.16
2023-02-02T15:56:56.801Z,97457.78
2023-02-02T15:59:25.944Z,97462.22
2023-02-02T16:02:05.131Z,97469.09
2023-02-02T16:04:39.289Z,97469.50
2023-02-02T16:07:06.805Z,97477.91
2023-02-02T16:09:34.274Z,97482.06
2023-02-02T16:12:01.808Z,97487.34
2023-02-02T16:14:28.634Z,97485.00
2023-02-02T16:16:54.967Z,97491.72
2023-02-02T16:19:22.403Z,97493.47
2023-02-02T16:21:55.008Z,97505.59
2023-02-02T16:24:25.868Z,97501.25
2023-02-02T16:26:53.324Z,97507.97
2023-02-02T16:29:20.613Z,97503.72
2023-02-02T16:31:48.101Z,97517.44
2023-02-02T16:34:16.870Z,97524.50
2023-02-02T16:36:43.442Z,97525.41
2023-02-02T16:39:22.514Z,97530.38
2023-02-02T16:41:50.666Z,97532.97
2023-02-02T16:44:33.152Z,97539.81
2023-02-02T16:46:59.925Z,97548.53
2023-02-02T16:49:27.016Z,97542.41
2023-02-02T16:52:14.661Z,97551.66
2023-02-02T16:54:43.840Z,97552.91
2023-02-02T16:57:15.919Z,97561.16
2023-02-02T16:59:46.999Z,97561.06
2023-02-02T17:02:21.106Z,97566.47
2023-02-02T17:04:49.649Z,97570.72
2023-02-02T17:07:16.530Z,97574.56
2023-02-02T17:09:43.963Z,97582.31
2023-02-02T17:12:32.275Z,97588.13
2023-02-02T17:15:23.766Z,97585.63
2023-02-02T17:17:51.809Z,97591.66
2023-02-02T17:20:19.470Z,97603.56
2023-02-02T17:22:47.761Z,97610.81
2023-02-02T17:25:17.129Z,97613.22
2023-02-02T17:27:45.129Z,97616.53
2023-02-02T17:30:17.722Z,97610.22
2023-02-02T17:32:45.168Z,97623.59
2023-02-02T17:35:19.180Z,97623.59
2023-02-02T17:37:45.773Z,97637.44
2023-02-02T17:40:13.317Z,97634.25
2023-02-02T17:42:39.696Z,97642.72
2023-02-02T17:45:17.445Z,97643.56
2023-02-02T17:47:43.897Z,97635.78
2023-02-02T17:50:10.467Z,97646.47
2023-02-02T17:52:39.486Z,97644.50
2023-02-02T17:55:13.662Z,97644.94
2023-02-02T17:57:41.294Z,97644.59
2023-02-02T18:00:08.174Z,97641.38
2023-02-02T18:02:35.082Z,97641.75
2023-02-02T18:05:02.190Z,97642.84
2023-02-02T18:07:28.522Z,97651.94
2023-02-02T18:09:56.050Z,97648.03
2023-02-02T18:12:22.491Z,97650.41
2023-02-02T18:14:49.142Z,97657.06
2023-02-02T18:17:15.463Z,97657.47
2023-02-02T18:19:45.045Z,97653.00
2023-02-02T18:22:13.429Z,97651.09
2023-02-02T18:24:40.318Z,97651.97
2023-02-02T18:27:06.726Z,97649.09
2023-02-02T18:29:33.204Z,97658.59
2023-02-02T18:31:59.593Z,97656.94
2023-02-02T18:34:28.983Z,97660.34
2023-02-02T18:36:55.342Z,97664.22
2023-02-02T18:39:21.645Z,97665.06
2023-02-02T18:41:48.073Z,97662.34
2023-02-02T18:44:16.576Z,97667.47
2023-02-02T18:46:42.962Z,97676.13
2023-02-02T18:49:09.732Z,97677.34
2023-02-02T18:51:36.199Z,97672.84
2023-02-02T18:54:02.668Z,97683.22
2023-02-02T18:56:29.511Z,97678.25
2023-02-02T18:58:57.236Z,97680.34
2023-02-02T19:01:24.686Z,97681.31
2023-02-02T19:03:52.001Z,97694.91
2023-02-02T19:06:37.408Z,97691.69
2023-02-02T19:09:04.397Z,97689.09
2023-02-02T19:11:44.982Z,97684.00
2023-02-02T19:14:24.681Z,97688.84
2023-02-02T19:16:52.607Z,97682.69
2023-02-02T19:19:29.133Z,97685.75
2023-02-02T19:21:59.706Z,97676.59
2023-02-02T19:24:26.889Z,97680.09
2023-02-02T19:26:54.752Z,97681.81
2023-02-02T19:29:22.499Z,97677.94
2023-02-02T19:32:04.732Z,97682.63
2023-02-02T19:34:33.417Z,97689.28
2023-02-02T19:37:21.144Z,97691.03
2023-02-02T19:39:47.581Z,97695.09
2023-02-02T19:42:13.969Z,97691.38
2023-02-02T19:44:42.055Z,97704.97
2023-02-02T19:47:19.133Z,97697.03
2023-02-02T19:49:45.600Z,97696.97
2023-02-02T19:52:18.846Z,97689.81
2023-02-02T19:54:47.943Z,97695.53
2023-02-02T19:57:21.271Z,97695.66
2023-02-02T19:59:48.937Z,97700.31
2023-02-02T20:02:24.974Z,97702.69
2023-02-02T20:05:14.915Z,97706.00
2023-02-02T20:07:41.239Z,97703.63
2023-02-02T20:10:25.751Z,97696.03
2023-02-02T20:12:52.423Z,97699.56
2023-02-02T20:15:35.360Z,97699.28
2023-02-02T20:18:03.381Z,97703.53
2023-02-02T20:20:34.169Z,97701.16
2023-02-02T20:23:00.600Z,97699.13
2023-02-02T20:25:29.164Z,97700.84
2023-02-02T20:27:58.952Z,97704.19
2023-02-02T20:30:28.181Z,97701.38
2023-02-02T20:32:56.536Z,97699.16
2023-02-02T20:35:22.850Z,97708.66
2023-02-02T20:37:49.305Z,97702.78
2023-02-02T20:40:22.882Z,97711.00
2023-02-02T20:42:49.857Z,97704.34
2023-02-02T20:45:17.520Z,97708.25
2023-02-02T20:47:44.551Z,97709.19
2023-02-02T20:50:12.183Z,97710.28
2023-02-02T20:52:38.647Z,97713.31
2023-02-02T20:55:05.156Z,97722.50
2023-02-02T20:57:32.813Z,97725.00
2023-02-02T20:59:59.762Z,97723.91
2023-02-02T21:02:27.052Z,97734.84
2023-02-02T21:04:54.039Z,97731.94
2023-02-02T21:07:21.983Z,97729.09
2023-02-02T21:09:49.405Z,97732.84
2023-02-02T21:12:15.839Z,97732.94
2023-02-02T21:14:42.247Z,97732.69
2023-02-02T21:17:15.314Z,97730.78
2023-02-02T21:19:43.381Z,97728.50
2023-02-02T21:22:11.221Z,97728.69
2023-02-02T21:24:37.862Z,97732.00
2023-02-02T21:27:04.632Z,97731.41
2023-02-02T21:29:33.188Z,97728.19
2023-02-02T21:32:02.669Z,97732.16
2023-02-02T21:34:30.095Z,97727.84
2023-02-02T21:36:58.082Z,97726.16
2023-02-02T21:39:27.264Z,97718.78
2023-02-02T21:42:14.253Z,97722.84
2023-02-02T21:45:03.887Z,97720.59
2023-02-02T21:48:04.780Z,97718.28
2023-02-02T21:50:41.235Z,97713.34
2023-02-02T21:53:13.080Z,97720.38
2023-02-02T21:55:39.685Z,97710.59
2023-02-02T21:58:15.719Z,97709.38
2023-02-02T22:00:42.088Z,97708.75
2023-02-02T22:03:27.452Z,97694.28
2023-02-02T22:05:59.786Z,97692.84
2023-02-02T22:08:26.151Z,97700.06
2023-02-02T22:10:52.462Z,97701.53
2023-02-02T22:13:23.147Z,97690.34
2023-02-02T22:15:51.055Z,97696.56
2023-02-02T22:18:19.203Z,97702.94
2023-02-02T22:20:50.387Z,97696.56
2023-02-02T22:23:18.138Z,97696.47
2023-02-02T22:25:45.344Z,97693.00
2023-02-02T22:28:15.687Z,97695.97
2023-02-02T22:30:42.265Z,97695.97
2023-02-02T22:33:09.827Z,97698.94
2023-02-02T22:35:37.458Z,97685.66
2023-02-02T22:38:04.190Z,97686.06
2023-02-02T22:40:31.071Z,97671.22
2023-02-02T22:43:03.083Z,97668.09
2023-02-02T22:45:29.430Z,97676.91
2023-02-02T22:47:55.909Z,97684.16
2023-02-02T22:50:27.577Z,97682.59
2023-02-02T22:52:54.276Z,97678.25
2023-02-02T22:55:20.664Z,97680.63
2023-02-02T22:57:47.179Z,97686.75
2023-02-02T23:00:18.493Z,97686.38
2023-02-02T23:02:45.085Z,97683.44
2023-02-02T23:05:13.146Z,97692.75
2023-02-02T23:07:39.795Z,97690.25
2023-02-02T23:10:07.519Z,97690.91
2023-02-02T23:12:34.936Z,97690.72
2023-02-02T23:15:01.397Z,97689.69
2023-02-02T23:17:31.745Z,97684.69
2023-02-02T23:19:58.100Z,97688.41
2023-02-02T23:22:24.457Z,97675.34
2023-02-02T23:24:52.826Z,97691.28
2023-02-02T23:27:19.131Z,97680.53
2023-02-02T23:29:45.517Z,97681.09
2023-02-02T23:32:11.955Z,97667.66
2023-02-02T23:34:38.383Z,97668.31
2023-02-02T23:37:04.695Z,97666.44
2023-02-02T23:39:31.069Z,97667.91
2023-02-02T23:41:57.536Z,97668.56
2023-02-02T23:44:23.908Z,97665.41
2023-02-02T23:46:51.141Z,97668.25
2023-02-02T23:49:17.684Z,97658.31
2023-02-02T23:51:44.295Z,97656.03
2023-02-02T23:54:12.137Z,97654.72
2023-02-02T23:56:38.692Z,97651.66
2023-02-02T23:59:07.189Z,97655.91
